createdAt,value
2023-01-08T00:01:06.729Z,96075.06
2023-01-08T00:03:35.035Z,96069.19
2023-01-08T00:06:05.601Z,96068.34
2023-01-08T00:08:34.307Z,96063.00
2023-01-08T00:11:02.516Z,96048.34
2023-01-08T00:13:30.676Z,96060.47
2023-01-08T00:15:58.576Z,96068.13
2023-01-08T00:18:27.317Z,96068.25
2023-01-08T00:20:55.495Z,96070.31
2023-01-08T00:23:25.227Z,96066.44
2023-01-08T00:25:53.159Z,96065.06
2023-01-08T00:28:21.511Z,96065.50
2023-01-08T00:30:50.141Z,96058.38
2023-01-08T00:33:18.060Z,96046.13
2023-01-08T00:35:45.890Z,96038.25
2023-01-08T00:38:14.214Z,96037.59
2023-01-08T00:40:43.449Z,96028.09
2023-01-08T00:43:11.307Z,96030.72
2023-01-08T00:45:39.242Z,96028.81
2023-01-08T00:48:07.781Z,96027.25
2023-01-08T00:50:35.581Z,96027.78
2023-01-08T00:53:04.135Z,96024.41
2023-01-08T00:55:32.271Z,96028.81
2023-01-08T00:58:01.429Z,96020.22
2023-01-08T01:00:29.292Z,96001.06
2023-01-08T01:02:57.126Z,96009.97
2023-01-08T01:05:25.029Z,96005.97
2023-01-08T01:07:52.948Z,96007.00
2023-01-08T01:10:20.878Z,96013.00
2023-01-08T01:12:48.722Z,96011.31
2023-01-08T01:15:19.653Z,96000.19
2023-01-08T01:17:47.771Z,96007.22
2023-01-08T01:20:17.329Z,96001.16
2023-01-08T01:22:45.372Z,96002.22
2023-01-08T01:25:14.189Z,95983.97
2023-01-08T01:27:43.062Z,95990.88
2023-01-08T01:30:11.787Z,95991.00
2023-01-08T01:32:41.107Z,96007.75
2023-01-08T01:35:09.592Z,96013.41
2023-01-08T01:37:39.042Z,96020.41
2023-01-08T01:40:07.947Z,96028.09
2023-01-08T01:42:41.738Z,96020.03
2023-01-08T01:45:21.064Z,96009.63
2023-01-08T01:47:55.532Z,96020.94
2023-01-08T01:50:29.284Z,96007.75
2023-01-08T01:53:02.835Z,96020.13
2023-01-08T01:55:31.876Z,96005.22
2023-01-08T01:58:04.639Z,96000.13
2023-01-08T02:00:34.715Z,96002.72
2023-01-08T02:03:05.965Z,95995.69
2023-01-08T02:05:44.528Z,95999.91
2023-01-08T02:08:14.126Z,95994.03
2023-01-08T02:10:48.846Z,95978.94
2023-01-08T02:13:22.534Z,95986.56
2023-01-08T02:15:57.805Z,95982.72
2023-01-08T02:18:35.707Z,95974.72
2023-01-08T02:21:09.611Z,95976.41
2023-01-08T02:23:47.352Z,95966.78
2023-01-08T02:26:21.118Z,95966.78
2023-01-08T02:28:54.088Z,95972.84
2023-01-08T02:31:24.966Z,95964.06
2023-01-08T02:33:52.984Z,95964.97
2023-01-08T02:36:33.153Z,95958.06
2023-01-08T02:39:22.042Z,95953.66
2023-01-08T02:42:02.064Z,95944.03
2023-01-08T02:44:37.401Z,95937.84
2023-01-08T02:47:09.023Z,95937.84
2023-01-08T02:49:42.779Z,95937.13
2023-01-08T02:52:12.980Z,95931.22
2023-01-08T02:54:43.423Z,95929.25
2023-01-08T02:57:15.777Z,95920.66
2023-01-08T02:59:46.906Z,95920.03
2023-01-08T03:02:15.173Z,95907.78
2023-01-08T03:04:50.680Z,95908.94
2023-01-08T03:07:18.485Z,95915.66
2023-01-08T03:09:46.610Z,95915.19
2023-01-08T03:12:19.690Z,95907.22
2023-01-08T03:14:53.924Z,95907.66
2023-01-08T03:17:26.069Z,95902.41
2023-01-08T03:19:57.414Z,95903.34
2023-01-08T03:22:26.473Z,95904.06
2023-01-08T03:24:57.876Z,95900.06
2023-01-08T03:27:31.183Z,95901.75
2023-01-08T03:30:00.687Z,95890.09
2023-01-08T03:32:31.062Z,95881.38
2023-01-08T03:35:01.531Z,95878.66
2023-01-08T03:37:38.241Z,95885.38
2023-01-08T03:40:10.705Z,95873.81
2023-01-08T03:42:40.080Z,95870.25
2023-01-08T03:45:09.188Z,95877.28
2023-01-08T03:47:39.223Z,95874.88
2023-01-08T03:50:10.860Z,95873.00
2023-01-08T03:52:38.833Z,95882.63
2023-01-08T03:55:07.236Z,95882.53
2023-01-08T03:57:35.050Z,95877.28
2023-01-08T04:00:05.656Z,95867.53
2023-01-08T04:02:33.658Z,95864.78
2023-01-08T04:05:01.699Z,95863.94
2023-01-08T04:07:29.546Z,95867.28
2023-01-08T04:09:57.517Z,95855.88
2023-01-08T04:12:25.810Z,95858.16
2023-01-08T04:14:53.696Z,95863.28
2023-01-08T04:17:22.995Z,95870.22
2023-01-08T04:19:50.835Z,95874.16
2023-01-08T04:22:18.773Z,95878.56
2023-01-08T04:24:46.645Z,95878.34
2023-01-08T04:27:14.441Z,95888.00
2023-01-08T04:29:42.300Z,95881.78
2023-01-08T04:32:10.181Z,95879.06
2023-01-08T04:34:39.343Z,95881.69
2023-01-08T04:37:07.170Z,95877.19
2023-01-08T04:39:35.139Z,95890.88
2023-01-08T04:42:02.938Z,95896.75
2023-01-08T04:44:30.808Z,95895.22
2023-01-08T04:46:58.649Z,95895.06
2023-01-08T04:49:26.482Z,95895.06
2023-01-08T04:51:55.679Z,95900.44
2023-01-08T04:54:23.978Z,95893.41
2023-01-08T04:56:52.661Z,95896.88
2023-01-08T04:59:20.619Z,95891.53
2023-01-08T05:01:48.571Z,95895.06
2023-01-08T05:04:16.452Z,95893.19
2023-01-08T05:06:44.271Z,95891.28
2023-01-08T05:09:13.436Z,95889.41
2023-01-08T05:11:41.277Z,95899.66
2023-01-08T05:14:09.885Z,95892.31
2023-01-08T05:16:37.686Z,95891.25
2023-01-08T05:19:05.538Z,95890.91
2023-01-08T05:21:33.494Z,95874.00
2023-01-08T05:24:01.390Z,95875.44
2023-01-08T05:26:30.578Z,95869.97
2023-01-08T05:28:58.931Z,95873.31
2023-01-08T05:31:26.990Z,95881.06
2023-01-08T05:33:54.850Z,95873.09
2023-01-08T05:36:22.654Z,95882.19
2023-01-08T05:38:50.829Z,95871.44
2023-01-08T05:41:18.732Z,95882.78
2023-01-08T05:43:47.930Z,95881.50
2023-01-08T05:46:15.802Z,95874.09
2023-01-08T05:48:43.646Z,95883.41
2023-01-08T05:51:11.464Z,95874.59
2023-01-08T05:53:39.533Z,95872.44
2023-01-08T05:56:09.817Z,95873.16
2023-01-08T05:58:38.073Z,95879.16
2023-01-08T06:01:10.176Z,95872.09
2023-01-08T06:03:38.692Z,95870.09
2023-01-08T06:06:08.490Z,95872.56
2023-01-08T06:08:36.547Z,95861.97
2023-01-08T06:11:07.766Z,95860.06
2023-01-08T06:13:37.816Z,95858.38
2023-01-08T06:16:07.836Z,95850.50
2023-01-08T06:18:36.284Z,95858.84
2023-01-08T06:21:05.235Z,95855.63
2023-01-08T06:23:33.225Z,95852.91
2023-01-08T06:26:04.154Z,95851.94
2023-01-08T06:28:32.721Z,95848.34
2023-01-08T06:31:01.564Z,95839.78
2023-01-08T06:33:31.387Z,95824.84
2023-01-08T06:36:02.190Z,95824.69
2023-01-08T06:38:32.193Z,95820.16
2023-01-08T06:41:00.024Z,95825.56
2023-01-08T06:43:27.817Z,95824.59
2023-01-08T06:45:57.951Z,95826.28
2023-01-08T06:48:26.624Z,95821.97
2023-01-08T06:50:56.292Z,95829.84
2023-01-08T06:53:24.847Z,95830.47
2023-01-08T06:55:56.855Z,95832.13
2023-01-08T06:58:25.347Z,95831.19
2023-01-08T07:00:53.291Z,95836.44
2023-01-08T07:03:21.808Z,95840.84
2023-01-08T07:05:50.735Z,95837.13
2023-01-08T07:08:20.366Z,95833.56
2023-01-08T07:10:48.325Z,95833.56
2023-01-08T07:13:16.307Z,95838.81
2023-01-08T07:15:44.520Z,95842.38
2023-01-08T07:18:13.518Z,95838.00
2023-01-08T07:20:41.434Z,95831.88
2023-01-08T07:23:12.844Z,95845.72
2023-01-08T07:25:42.693Z,95837.13
2023-01-08T07:28:12.815Z,95845.25
2023-01-08T07:30:40.753Z,95853.13
2023-01-08T07:33:08.569Z,95842.63
2023-01-08T07:35:38.321Z,95840.09
2023-01-08T07:38:06.390Z,95842.88
2023-01-08T07:40:34.240Z,95848.25
2023-01-08T07:43:05.275Z,95846.78
2023-01-08T07:45:33.372Z,95854.56
2023-01-08T07:48:01.666Z,95856.59
2023-01-08T07:50:29.694Z,95859.34
2023-01-08T07:53:01.467Z,95860.78
2023-01-08T07:55:30.757Z,95852.28
2023-01-08T07:57:58.796Z,95853.13
2023-01-08T08:00:28.283Z,95859.34
2023-01-08T08:02:56.327Z,95846.22
2023-01-08T08:05:24.293Z,95848.94
2023-01-08T08:07:52.187Z,95847.16
2023-01-08T08:10:20.045Z,95850.84
2023-01-08T08:12:47.835Z,95847.38
2023-01-08T08:15:15.774Z,95843.09
2023-01-08T08:17:47.740Z,95838.69
2023-01-08T08:20:15.760Z,95840.34
2023-01-08T08:22:43.611Z,95837.72
2023-01-08T08:25:12.006Z,95832.47
2023-01-08T08:27:39.902Z,95837.59
2023-01-08T08:30:09.503Z,95829.72
2023-01-08T08:32:37.555Z,95820.88
2023-01-08T08:35:08.059Z,95821.50
2023-01-08T08:37:35.948Z,95823.28
2023-01-08T08:40:03.804Z,95816.97
2023-01-08T08:42:31.679Z,95823.16
2023-01-08T08:44:59.526Z,95820.31
2023-01-08T08:47:27.377Z,95820.91
2023-01-08T08:49:55.273Z,95813.84
2023-01-08T08:52:24.501Z,95813.84
2023-01-08T08:54:52.308Z,95813.00
2023-01-08T08:57:20.348Z,95811.81
2023-01-08T08:59:48.228Z,95802.16
2023-01-08T09:02:16.270Z,95815.44
2023-01-08T09:04:44.122Z,95809.91
2023-01-08T09:07:12.002Z,95804.53
2023-01-08T09:09:41.124Z,95805.59
2023-01-08T09:12:09.107Z,95805.38
2023-01-08T09:14:37.002Z,95801.78
2023-01-08T09:17:04.816Z,95798.22
2023-01-08T09:19:32.743Z,95803.22
2023-01-08T09:22:00.508Z,95806.56
2023-01-08T09:24:28.311Z,95799.63
2023-01-08T09:26:57.566Z,95797.88
2023-01-08T09:29:25.883Z,95802.97
2023-01-08T09:31:53.777Z,95813.25
2023-01-08T09:34:21.632Z,95807.97
2023-01-08T09:36:49.393Z,95803.44
2023-01-08T09:39:17.248Z,95804.41
2023-01-08T09:41:47.681Z,95807.16
2023-01-08T09:44:21.649Z,95811.09
2023-01-08T09:46:50.297Z,95806.56
2023-01-08T09:49:23.491Z,95799.53
2023-01-08T09:51:51.369Z,95805.34
2023-01-08T09:54:19.584Z,95809.66
2023-01-08T09:56:47.459Z,95805.81
2023-01-08T09:59:19.358Z,95813.69
2023-01-08T10:01:48.762Z,95818.72
2023-01-08T10:04:20.132Z,95820.28
2023-01-08T10:06:53.249Z,95816.81
2023-01-08T10:09:25.246Z,95805.94
2023-01-08T10:11:56.177Z,95819.66
2023-01-08T10:14:28.106Z,95816.31
2023-01-08T10:17:00.641Z,95826.63
2023-01-08T10:19:28.464Z,95812.50
2023-01-08T10:21:58.522Z,95810.59
2023-01-08T10:24:34.701Z,95812.25
2023-01-08T10:27:10.236Z,95812.97
2023-01-08T10:29:40.753Z,95803.97
2023-01-08T10:32:16.357Z,95797.78
2023-01-08T10:34:47.628Z,95797.63
2023-01-08T10:37:23.117Z,95787.84
2023-01-08T10:39:51.590Z,95784.97
2023-01-08T10:42:21.277Z,95784.97
2023-01-08T10:45:01.163Z,95773.38
2023-01-08T10:47:31.855Z,95779.22
2023-01-08T10:50:01.141Z,95772.75
2023-01-08T10:52:32.881Z,95778.72
2023-01-08T10:55:14.711Z,95773.19
2023-01-08T10:57:44.714Z,95770.09
2023-01-08T11:00:29.354Z,95771.63
2023-01-08T11:02:59.955Z,95766.94
2023-01-08T11:05:32.944Z,95763.34
2023-01-08T11:08:03.743Z,95763.34
2023-01-08T11:10:31.771Z,95764.06
2023-01-08T11:13:01.524Z,95761.28
2023-01-08T11:15:33.075Z,95757.56
2023-01-08T11:18:19.873Z,95749.56
2023-01-08T11:20:48.707Z,95750.28
2023-01-08T11:23:19.961Z,95741.28
2023-01-08T11:25:55.460Z,95740.31
2023-01-08T11:28:30.533Z,95743.66
2023-01-08T11:31:10.999Z,95740.06
2023-01-08T11:33:41.641Z,95734.81
2023-01-08T11:36:17.098Z,95728.44
2023-01-08T11:38:44.953Z,95716.94
2023-01-08T11:41:30.140Z,95715.84
2023-01-08T11:44:19.237Z,95699.94
2023-01-08T11:46:56.221Z,95705.09
2023-01-08T11:49:39.713Z,95693.59
2023-01-08T11:52:21.276Z,95689.31
2023-01-08T11:55:07.596Z,95689.75
2023-01-08T11:57:44.588Z,95686.41
2023-01-08T12:00:29.616Z,95687.22
2023-01-08T12:03:02.497Z,95676.59
2023-01-08T12:05:33.099Z,95672.97
2023-01-08T12:08:04.947Z,95666.88
2023-01-08T12:10:42.769Z,95660.53
2023-01-08T12:13:23.963Z,95650.97
2023-01-08T12:16:03.051Z,95647.25
2023-01-08T12:18:49.632Z,95652.09
2023-01-08T12:21:27.336Z,95648.50
2023-01-08T12:24:10.799Z,95645.88
2023-01-08T12:26:48.371Z,95644.75
2023-01-08T12:29:28.471Z,95646.44
2023-01-08T12:32:10.347Z,95643.66
2023-01-08T12:34:50.352Z,95642.00
2023-01-08T12:37:25.352Z,95639.09
2023-01-08T12:39:56.811Z,95637.19
2023-01-08T12:42:29.015Z,95629.28
2023-01-08T12:45:00.229Z,95636.91
2023-01-08T12:47:32.079Z,95628.88
2023-01-08T12:50:11.012Z,95635.94
2023-01-08T12:52:48.706Z,95637.59
2023-01-08T12:55:28.923Z,95631.41
2023-01-08T12:58:06.740Z,95624.44
2023-01-08T13:00:40.918Z,95626.13
2023-01-08T13:03:14.936Z,95617.94
2023-01-08T13:05:44.869Z,95621.56
2023-01-08T13:08:30.594Z,95621.56
2023-01-08T13:10:58.755Z,95617.25
2023-01-08T13:13:29.544Z,95613.66
2023-01-08T13:16:22.250Z,95617.13
2023-01-08T13:18:56.018Z,95612.09
2023-01-08T13:21:37.311Z,95610.19
2023-01-08T13:24:08.723Z,95614.63
2023-01-08T13:26:37.760Z,95611.28
2023-01-08T13:29:23.957Z,95607.13
2023-01-08T13:31:52.410Z,95607.00
2023-01-08T13:34:35.056Z,95610.72
2023-01-08T13:37:04.281Z,95598.38
2023-01-08T13:39:37.647Z,95585.78
2023-01-08T13:42:28.580Z,95576.81
2023-01-08T13:45:02.113Z,95570.44
2023-01-08T13:47:33.273Z,95573.78
2023-01-08T13:50:04.340Z,95565.00
2023-01-08T13:52:41.681Z,95560.44
2023-01-08T13:55:16.350Z,95548.97
2023-01-08T13:57:47.974Z,95535.38
2023-01-08T14:00:23.229Z,95540.66
2023-01-08T14:02:51.625Z,95545.97
2023-01-08T14:05:23.565Z,95542.63
2023-01-08T14:07:52.941Z,95533.91
2023-01-08T14:10:21.922Z,95528.63
2023-01-08T14:12:51.428Z,95522.69
2023-01-08T14:15:23.529Z,95534.31
2023-01-08T14:17:52.190Z,95550.94
2023-01-08T14:20:32.675Z,95547.50
2023-01-08T14:23:03.290Z,95546.66
2023-01-08T14:25:31.489Z,95549.16
2023-01-08T14:28:02.397Z,95546.78
2023-01-08T14:30:31.185Z,95544.44
2023-01-08T14:33:00.672Z,95546.25
2023-01-08T14:35:32.976Z,95541.00
2023-01-08T14:38:03.419Z,95539.19
2023-01-08T14:40:34.225Z,95539.56
2023-01-08T14:43:08.038Z,95532.59
2023-01-08T14:45:37.396Z,95532.59
2023-01-08T14:48:11.599Z,95531.91
2023-01-08T14:50:42.849Z,95525.13
2023-01-08T14:53:23.696Z,95525.13
2023-01-08T14:55:55.232Z,95519.03
2023-01-08T14:58:25.277Z,95516.25
2023-01-08T15:00:55.727Z,95511.13
2023-01-08T15:03:35.458Z,95514.88
2023-01-08T15:06:03.870Z,95506.97
2023-01-08T15:08:38.854Z,95507.94
2023-01-08T15:11:15.523Z,95496.97
2023-01-08T15:13:43.466Z,95485.75
2023-01-08T15:16:13.229Z,95487.13
2023-01-08T15:18:46.997Z,95473.53
2023-01-08T15:21:19.715Z,95472.31
2023-01-08T15:23:51.559Z,95463.53
2023-01-08T15:26:19.794Z,95465.63
2023-01-08T15:28:52.724Z,95466.88
2023-01-08T15:31:28.901Z,95459.09
2023-01-08T15:33:57.807Z,95461.06
2023-01-08T15:36:25.946Z,95457.84
2023-01-08T15:38:55.568Z,95452.16
2023-01-08T15:41:42.426Z,95452.28
2023-01-08T15:44:12.798Z,95462.81
2023-01-08T15:46:40.630Z,95457.72
2023-01-08T15:49:08.442Z,95449.81
2023-01-08T15:51:38.549Z,95446.34
2023-01-08T15:54:10.022Z,95444.69
2023-01-08T15:56:37.916Z,95440.13
2023-01-08T15:59:05.758Z,95435.97
2023-01-08T16:01:34.635Z,95437.91
2023-01-08T16:04:02.551Z,95443.03
2023-01-08T16:06:30.496Z,95443.03
2023-01-08T16:09:00.323Z,95439.53
2023-01-08T16:11:29.688Z,95439.53
2023-01-08T16:13:57.544Z,95434.44
2023-01-08T16:16:25.448Z,95429.19
2023-01-08T16:18:53.522Z,95423.91
2023-01-08T16:21:21.401Z,95414.50
2023-01-08T16:23:49.264Z,95407.25
2023-01-08T16:26:17.468Z,95400.63
2023-01-08T16:28:46.721Z,95402.56
2023-01-08T16:31:14.616Z,95389.53
2023-01-08T16:33:42.505Z,95391.47
2023-01-08T16:36:11.584Z,95394.97
2023-01-08T16:38:39.420Z,95386.09
2023-01-08T16:41:07.328Z,95384.28
2023-01-08T16:43:41.215Z,95381.66
2023-01-08T16:46:14.973Z,95382.63
2023-01-08T16:48:43.471Z,95374.88
2023-01-08T16:51:11.887Z,95372.22
2023-01-08T16:53:40.683Z,95357.44
2023-01-08T16:56:09.179Z,95355.75
2023-01-08T16:58:37.813Z,95352.88
2023-01-08T17:01:10.269Z,95362.41
2023-01-08T17:03:39.763Z,95360.47
2023-01-08T17:06:09.756Z,95363.94
2023-01-08T17:08:40.124Z,95357.56
2023-01-08T17:11:09.937Z,95350.66
2023-01-08T17:13:38.326Z,95351.34
2023-01-08T17:16:07.045Z,95350.38
2023-01-08T17:18:34.903Z,95338.19
2023-01-08T17:21:05.095Z,95332.22
2023-01-08T17:23:33.170Z,95333.88
2023-01-08T17:26:04.107Z,95336.38
2023-01-08T17:28:35.009Z,95330.41
2023-01-08T17:31:04.477Z,95333.06
2023-01-08T17:33:32.480Z,95329.59
2023-01-08T17:36:00.429Z,95318.22
2023-01-08T17:38:29.681Z,95321.97
2023-01-08T17:41:01.409Z,95321.28
2023-01-08T17:43:29.345Z,95309.78
2023-01-08T17:45:57.302Z,95312.53
2023-01-08T17:48:25.179Z,95315.34
2023-01-08T17:50:53.057Z,95317.69
2023-01-08T17:53:20.886Z,95304.53
2023-01-08T17:55:50.203Z,95312.28
2023-01-08T17:58:18.077Z,95297.03
2023-01-08T18:00:46.021Z,95300.66
2023-01-08T18:03:13.966Z,95288.59
2023-01-08T18:05:41.988Z,95285.28
2023-01-08T18:08:09.776Z,95282.66
2023-01-08T18:10:38.610Z,95274.06
2023-01-08T18:13:07.793Z,95265.31
2023-01-08T18:15:35.770Z,95264.50
2023-01-08T18:18:03.593Z,95267.00
2023-01-08T18:20:31.434Z,95266.31
2023-01-08T18:22:59.333Z,95253.97
2023-01-08T18:25:27.741Z,95244.44
2023-01-08T18:27:55.678Z,95239.19
2023-01-08T18:30:25.183Z,95237.38
2023-01-08T18:32:53.071Z,95248.72
2023-01-08T18:35:20.980Z,95254.97
2023-01-08T18:37:48.814Z,95257.59
2023-01-08T18:40:17.107Z,95262.84
2023-01-08T18:42:44.964Z,95254.13
2023-01-08T18:45:15.027Z,95247.38
2023-01-08T18:47:44.170Z,95243.06
2023-01-08T18:50:12.713Z,95253.44
2023-01-08T18:52:41.960Z,95249.13
2023-01-08T18:55:10.439Z,95239.47
2023-01-08T18:57:39.242Z,95236.84
2023-01-08T19:00:08.535Z,95232.25
2023-01-08T19:02:36.370Z,95231.59
2023-01-08T19:05:06.279Z,95225.47
2023-01-08T19:07:34.125Z,95226.44
2023-01-08T19:10:02.327Z,95228.94
2023-01-08T19:12:32.297Z,95216.06
2023-01-08T19:15:00.174Z,95214.41
2023-01-08T19:17:30.901Z,95212.47
2023-01-08T19:19:59.175Z,95196.00
2023-01-08T19:22:28.996Z,95198.47
2023-01-08T19:24:57.636Z,95195.19
2023-01-08T19:27:25.972Z,95179.66
2023-01-08T19:29:55.649Z,95184.09
2023-01-08T19:32:24.202Z,95183.09
2023-01-08T19:34:53.535Z,95185.06
2023-01-08T19:37:21.875Z,95178.84
2023-01-08T19:39:51.086Z,95176.34
2023-01-08T19:42:37.140Z,95173.03
2023-01-08T19:45:05.620Z,95169.72
2023-01-08T19:47:33.440Z,95165.28
2023-01-08T19:50:01.317Z,95160.56
2023-01-08T19:52:29.302Z,95161.38
2023-01-08T19:54:59.866Z,95163.59
2023-01-08T19:57:27.835Z,95161.25
2023-01-08T19:59:55.700Z,95163.50
2023-01-08T20:02:23.618Z,95159.22
2023-01-08T20:04:51.815Z,95157.81
2023-01-08T20:07:19.974Z,95167.50
2023-01-08T20:09:47.908Z,95168.19
2023-01-08T20:12:17.146Z,95159.63
2023-01-08T20:14:45.029Z,95154.50
2023-01-08T20:17:13.039Z,95151.59
2023-01-08T20:19:40.931Z,95152.81
2023-01-08T20:22:08.838Z,95152.00
2023-01-08T20:24:36.721Z,95142.47
2023-01-08T20:27:04.809Z,95145.50
2023-01-08T20:29:34.017Z,95146.63
2023-01-08T20:32:04.775Z,95129.88
2023-01-08T20:34:33.115Z,95132.09
2023-01-08T20:37:00.937Z,95132.66
2023-01-08T20:39:28.797Z,95128.78
2023-01-08T20:42:04.296Z,95121.56
2023-01-08T20:44:34.630Z,95113.28
2023-01-08T20:47:02.730Z,95109.69
2023-01-08T20:49:30.770Z,95112.19
2023-01-08T20:52:00.337Z,95104.72
2023-01-08T20:54:29.825Z,95108.84
2023-01-08T20:56:58.279Z,95097.53
2023-01-08T20:59:26.993Z,95100.16
2023-01-08T21:01:57.233Z,95101.94
2023-01-08T21:04:25.727Z,95092.13
2023-01-08T21:06:53.699Z,95086.19
2023-01-08T21:09:21.632Z,95087.56
2023-01-08T21:11:49.436Z,95080.22
2023-01-08T21:14:17.294Z,95072.34
2023-01-08T21:16:45.325Z,95070.69
2023-01-08T21:19:16.523Z,95063.47
2023-01-08T21:21:45.791Z,95068.63
2023-01-08T21:24:15.685Z,95068.03
2023-01-08T21:26:45.790Z,95057.41
2023-01-08T21:29:14.730Z,95046.19
2023-01-08T21:31:43.245Z,95040.94
2023-01-08T21:34:11.711Z,95045.50
2023-01-08T21:36:41.036Z,95038.19
2023-01-08T21:39:09.021Z,95031.13
2023-01-08T21:41:54.508Z,95015.50
2023-01-08T21:44:41.903Z,95017.44
2023-01-08T21:47:12.121Z,95020.22
2023-01-08T21:49:40.181Z,95016.06
2023-01-08T21:52:27.051Z,95015.78
2023-01-08T21:54:56.150Z,95012.47
2023-01-08T21:57:25.431Z,95015.91
2023-01-08T21:59:53.298Z,95004.06
2023-01-08T22:02:24.063Z,94996.81
2023-01-08T22:04:55.990Z,95002.38
2023-01-08T22:07:25.754Z,94990.06
2023-01-08T22:09:53.751Z,94990.22
2023-01-08T22:12:22.932Z,95002.53
2023-01-08T22:14:53.140Z,94988.03
2023-01-08T22:17:21.319Z,94987.03
2023-01-08T22:19:49.169Z,94987.19
2023-01-08T22:22:17.098Z,94984.69
2023-01-08T22:24:46.254Z,94979.44
2023-01-08T22:27:14.089Z,94984.69
2023-01-08T22:29:41.956Z,94983.03
2023-01-08T22:32:09.875Z,94984.69
2023-01-08T22:34:37.705Z,94982.63
2023-01-08T22:37:05.552Z,94972.81
2023-01-08T22:39:33.441Z,94971.00
2023-01-08T22:42:02.914Z,94982.50
2023-01-08T22:44:30.810Z,94973.63
2023-01-08T22:47:00.121Z,94981.66
2023-01-08T22:49:28.034Z,94979.75
2023-01-08T22:51:56.043Z,94985.13
2023-01-08T22:54:23.857Z,94983.31
2023-01-08T22:56:51.736Z,94982.38
2023-01-08T22:59:21.876Z,94979.03
2023-01-08T23:01:49.760Z,94971.44
2023-01-08T23:04:17.687Z,94979.03
2023-01-08T23:06:45.574Z,94972.00
2023-01-08T23:09:13.423Z,94979.03
2023-01-08T23:11:41.677Z,94980.00
2023-01-08T23:14:13.665Z,94963.41
2023-01-08T23:16:43.847Z,94961.91
2023-01-08T23:19:12.268Z,94972.13
2023-01-08T23:21:40.307Z,94972.28
2023-01-08T23:24:12.140Z,94962.88
2023-01-08T23:26:39.953Z,94956.94
2023-01-08T23:29:07.787Z,94947.25
2023-01-08T23:31:37.775Z,94949.88
2023-01-08T23:34:07.493Z,94946.28
2023-01-08T23:36:35.415Z,94940.63
2023-01-08T23:39:03.454Z,94941.44
2023-01-08T23:41:34.522Z,94935.53
2023-01-08T23:44:05.241Z,94942.41
2023-01-08T23:46:33.074Z,94934.53
2023-01-08T23:49:01.575Z,94933.56
2023-01-08T23:51:31.044Z,94931.91
2023-01-08T23:53:58.874Z,94935.25
2023-01-08T23:56:27.190Z,94935.38
2023-01-08T23:58:55.735Z,94945.88
